createdAt,value
2023-02-11T00:01:17.261Z,2.30
2023-02-11T00:03:46.494Z,2.60
2023-02-11T00:06:14.574Z,2.60
2023-02-11T00:08:42.325Z,2.70
2023-02-11T00:11:14.435Z,2.30
2023-02-11T00:13:42.578Z,2.30
2023-02-11T00:16:11.991Z,2.70
2023-02-11T00:18:40.098Z,2.50
2023-02-11T00:21:10.676Z,2.70
2023-02-11T00:23:38.921Z,2.50
2023-02-11T00:26:13.372Z,2.50
2023-02-11T00:28:41.376Z,2.30
2023-02-11T00:31:09.274Z,2.60
2023-02-11T00:33:37.193Z,2.70
2023-02-11T00:36:06.479Z,2.70
2023-02-11T00:38:35.765Z,2.50
2023-02-11T00:41:03.510Z,2.70
2023-02-11T00:43:31.350Z,2.80
2023-02-11T00:45:59.074Z,2.90
2023-02-11T00:48:26.831Z,2.60
2023-02-11T00:50:55.001Z,2.70
2023-02-11T00:53:22.770Z,2.90
2023-02-11T00:55:53.013Z,3.00
2023-02-11T00:58:21.212Z,2.50
2023-02-11T01:00:49.065Z,2.80
2023-02-11T01:03:16.902Z,2.70
2023-02-11T01:05:44.728Z,2.70
2023-02-11T01:08:12.492Z,2.80
2023-02-11T01:10:40.204Z,2.60
2023-02-11T01:13:09.238Z,2.60
2023-02-11T01:15:37.008Z,2.40
2023-02-11T01:18:06.245Z,2.50
2023-02-11T01:20:34.043Z,2.40
2023-02-11T01:23:01.793Z,2.70
2023-02-11T01:25:29.549Z,2.40
2023-02-11T01:27:57.289Z,2.60
2023-02-11T01:30:26.524Z,2.40
2023-02-11T01:32:54.260Z,2.60
2023-02-11T01:35:22.038Z,2.50
2023-02-11T01:37:49.765Z,2.50
2023-02-11T01:40:18.642Z,2.60
2023-02-11T01:42:48.379Z,2.70
2023-02-11T01:45:57.541Z,2.70
2023-02-11T01:48:30.937Z,2.70
2023-02-11T01:51:05.079Z,2.60
2023-02-11T01:53:51.486Z,2.80
2023-02-11T01:56:38.781Z,2.90
2023-02-11T01:59:12.555Z,2.80
2023-02-11T02:01:43.305Z,2.70
2023-02-11T02:04:13.811Z,2.70
2023-02-11T02:06:46.785Z,2.70
2023-02-11T02:09:18.977Z,2.70
2023-02-11T02:11:46.735Z,2.80
2023-02-11T02:14:14.688Z,2.80
2023-02-11T02:16:42.435Z,2.60
2023-02-11T02:19:57.545Z,2.40
2023-02-11T02:23:08.214Z,2.70
2023-02-11T02:26:00.999Z,2.50
2023-02-11T02:28:49.413Z,2.40
2023-02-11T02:31:42.263Z,2.40
2023-02-11T02:34:16.749Z,2.30
2023-02-11T02:36:52.807Z,2.20
2023-02-11T02:39:26.114Z,2.30
2023-02-11T02:41:54.979Z,2.40
2023-02-11T02:44:22.781Z,2.50
2023-02-11T02:46:50.727Z,2.50
2023-02-11T02:49:19.767Z,2.20
2023-02-11T02:52:02.889Z,2.70
2023-02-11T02:54:53.887Z,2.40
2023-02-11T02:57:31.753Z,2.30
2023-02-11T03:00:15.598Z,2.50
2023-02-11T03:02:51.507Z,2.70
2023-02-11T03:05:26.886Z,2.50
2023-02-11T03:07:59.593Z,2.40
2023-02-11T03:10:31.045Z,2.50
2023-02-11T03:12:59.615Z,2.40
2023-02-11T03:15:30.763Z,2.40
2023-02-11T03:18:01.291Z,2.50
2023-02-11T03:20:33.870Z,2.40
2023-02-11T03:23:06.934Z,2.60
2023-02-11T03:25:42.309Z,2.70
2023-02-11T03:28:14.849Z,2.70
2023-02-11T03:30:48.053Z,2.40
2023-02-11T03:33:20.940Z,2.50
2023-02-11T03:35:54.354Z,2.50
2023-02-11T03:38:26.072Z,2.60
2023-02-11T03:40:56.571Z,2.40
2023-02-11T03:43:29.614Z,2.70
2023-02-11T03:45:58.777Z,2.60
2023-02-11T03:48:29.346Z,2.50
2023-02-11T03:51:01.086Z,2.50
2023-02-11T03:53:28.964Z,2.50
2023-02-11T03:56:01.064Z,2.50
2023-02-11T03:58:28.846Z,2.40
2023-02-11T04:00:56.653Z,2.70
2023-02-11T04:03:24.550Z,2.50
2023-02-11T04:05:52.588Z,2.40
2023-02-11T04:08:22.031Z,2.50
2023-02-11T04:10:49.807Z,2.60
2023-02-11T04:13:17.519Z,2.40
2023-02-11T04:15:47.811Z,2.50
2023-02-11T04:18:16.455Z,2.60
2023-02-11T04:20:44.254Z,2.50
2023-02-11T04:23:12.017Z,2.50
2023-02-11T04:25:41.094Z,2.60
2023-02-11T04:28:08.793Z,2.50
2023-02-11T04:30:36.797Z,2.50
2023-02-11T04:33:04.637Z,2.00
2023-02-11T04:35:32.390Z,2.60
2023-02-11T04:38:00.225Z,2.40
2023-02-11T04:40:28.236Z,2.50
2023-02-11T04:42:57.340Z,2.40
2023-02-11T04:45:25.273Z,2.70
2023-02-11T04:47:53.007Z,2.40
2023-02-11T04:50:20.855Z,2.40
2023-02-11T04:52:48.579Z,2.40
2023-02-11T04:55:16.355Z,2.40
2023-02-11T04:57:44.228Z,2.60
2023-02-11T05:00:15.077Z,2.50
2023-02-11T05:02:42.864Z,2.20
2023-02-11T05:05:10.595Z,2.30
2023-02-11T05:07:38.320Z,2.40
2023-02-11T05:10:06.338Z,2.40
2023-02-11T05:12:34.062Z,2.40
2023-02-11T05:15:01.752Z,2.80
2023-02-11T05:17:30.818Z,2.60
2023-02-11T05:19:58.537Z,2.60
2023-02-11T05:22:26.261Z,2.60
2023-02-11T05:24:54.363Z,2.80
2023-02-11T05:27:22.127Z,2.90
2023-02-11T05:29:49.886Z,2.40
2023-02-11T05:32:17.631Z,2.40
2023-02-11T05:34:46.922Z,2.40
2023-02-11T05:37:15.066Z,2.50
2023-02-11T05:39:42.945Z,2.60
2023-02-11T05:42:10.731Z,2.60
2023-02-11T05:44:38.894Z,2.50
2023-02-11T05:47:08.476Z,2.50
2023-02-11T05:49:36.480Z,2.40
2023-02-11T05:52:05.890Z,2.80
2023-02-11T05:54:33.656Z,2.80
2023-02-11T05:57:01.381Z,2.80
2023-02-11T05:59:29.099Z,2.50
2023-02-11T06:01:56.874Z,2.60
2023-02-11T06:04:24.565Z,2.60
2023-02-11T06:06:52.290Z,2.70
2023-02-11T06:09:21.438Z,2.70
2023-02-11T06:11:49.297Z,2.70
2023-02-11T06:14:17.037Z,2.60
2023-02-11T06:16:45.339Z,2.70
2023-02-11T06:19:13.513Z,2.60
2023-02-11T06:21:44.158Z,2.70
2023-02-11T06:24:12.321Z,2.60
2023-02-11T06:26:41.440Z,2.60
2023-02-11T06:29:09.247Z,2.50
2023-02-11T06:31:38.828Z,2.50
2023-02-11T06:34:06.900Z,2.50
2023-02-11T06:36:34.571Z,2.50
2023-02-11T06:39:02.265Z,2.50
2023-02-11T06:41:30.027Z,2.60
2023-02-11T06:43:59.189Z,2.60
2023-02-11T06:46:26.934Z,2.60
2023-02-11T06:48:54.728Z,2.60
2023-02-11T06:51:23.084Z,2.40
2023-02-11T06:53:50.849Z,2.70
2023-02-11T06:56:20.453Z,2.50
2023-02-11T06:58:48.580Z,2.40
2023-02-11T07:01:18.114Z,2.70
2023-02-11T07:03:46.818Z,2.40
2023-02-11T07:06:16.568Z,2.70
2023-02-11T07:08:45.889Z,2.30
2023-02-11T07:11:15.445Z,2.40
2023-02-11T07:13:44.045Z,2.40
2023-02-11T07:16:15.037Z,2.60
2023-02-11T07:18:44.938Z,2.50
2023-02-11T07:21:15.188Z,2.60
2023-02-11T07:23:43.225Z,2.50
2023-02-11T07:26:14.328Z,2.50
2023-02-11T07:28:43.002Z,2.60
2023-02-11T07:31:13.080Z,2.80
2023-02-11T07:33:40.962Z,2.60
2023-02-11T07:36:11.634Z,2.70
2023-02-11T07:38:40.250Z,2.70
2023-02-11T07:41:10.704Z,2.80
2023-02-11T07:43:39.426Z,2.70
2023-02-11T07:46:08.947Z,3.00
2023-02-11T07:48:36.791Z,3.00
2023-02-11T07:51:11.674Z,3.10
2023-02-11T07:53:39.836Z,3.00
2023-02-11T07:56:09.221Z,3.50
2023-02-11T07:58:37.321Z,3.80
2023-02-11T08:01:06.092Z,3.90
2023-02-11T08:03:35.081Z,4.10
2023-02-11T08:06:05.337Z,4.10
2023-02-11T08:08:34.639Z,4.60
2023-02-11T08:11:07.714Z,4.90
2023-02-11T08:13:35.688Z,5.20
2023-02-11T08:16:04.411Z,5.60
2023-02-11T08:18:32.454Z,5.70
2023-02-11T08:21:05.817Z,5.90
2023-02-11T08:23:37.542Z,6.10
2023-02-11T08:26:06.406Z,6.60
2023-02-11T08:28:37.158Z,6.70
2023-02-11T08:31:07.144Z,6.60
2023-02-11T08:33:35.308Z,7.40
2023-02-11T08:36:08.464Z,6.90
2023-02-11T08:38:37.807Z,7.50
2023-02-11T08:41:06.049Z,7.80
2023-02-11T08:43:34.218Z,7.70
2023-02-11T08:46:02.630Z,7.00
2023-02-11T08:48:31.384Z,6.40
2023-02-11T08:50:59.179Z,6.00
2023-02-11T08:53:27.059Z,6.00
2023-02-11T08:55:57.967Z,5.60
2023-02-11T08:58:25.670Z,5.90
2023-02-11T09:00:55.302Z,5.70
2023-02-11T09:03:24.540Z,5.70
2023-02-11T09:05:55.273Z,5.40
2023-02-11T09:08:24.713Z,5.50
2023-02-11T09:10:54.425Z,5.40
2023-02-11T09:13:25.750Z,5.80
2023-02-11T09:15:55.491Z,6.50
2023-02-11T09:18:25.466Z,7.60
2023-02-11T09:20:54.962Z,8.00
2023-02-11T09:23:24.561Z,7.80
2023-02-11T09:25:54.286Z,8.00
2023-02-11T09:28:25.493Z,8.60
2023-02-11T09:30:55.611Z,9.40
2023-02-11T09:33:25.596Z,9.90
2023-02-11T09:35:55.923Z,9.90
2023-02-11T09:38:25.674Z,10.30
2023-02-11T09:40:55.651Z,10.20
2023-02-11T09:43:35.050Z,10.20
2023-02-11T09:46:05.471Z,10.30
2023-02-11T09:48:42.735Z,10.40
2023-02-11T09:51:20.370Z,10.40
2023-02-11T09:53:53.555Z,10.40
2023-02-11T09:56:23.187Z,9.40
2023-02-11T09:58:52.360Z,9.20
2023-02-11T10:01:31.657Z,8.70
2023-02-11T10:04:08.356Z,8.70
2023-02-11T10:06:46.341Z,8.90
2023-02-11T10:09:34.614Z,8.70
2023-02-11T10:12:19.313Z,8.50
2023-02-11T10:15:13.380Z,8.60
2023-02-11T10:17:54.012Z,8.40
2023-02-11T10:20:29.485Z,8.50
2023-02-11T10:23:01.649Z,8.20
2023-02-11T10:25:35.362Z,8.50
2023-02-11T10:28:13.108Z,8.40
2023-02-11T10:30:47.505Z,8.90
2023-02-11T10:33:24.376Z,8.90
2023-02-11T10:35:52.139Z,8.70
2023-02-11T10:38:19.974Z,9.00
2023-02-11T10:40:47.777Z,9.00
2023-02-11T10:43:17.858Z,8.90
2023-02-11T10:45:50.072Z,8.90
2023-02-11T10:48:40.685Z,8.80
2023-02-11T10:51:14.797Z,9.20
2023-02-11T10:53:42.919Z,9.50
2023-02-11T10:56:15.234Z,9.60
2023-02-11T10:58:46.762Z,9.40
2023-02-11T11:01:24.487Z,9.00
2023-02-11T11:03:53.844Z,9.40
2023-02-11T11:06:31.975Z,9.90
2023-02-11T11:09:00.032Z,9.70
2023-02-11T11:11:28.318Z,9.90
2023-02-11T11:13:59.139Z,9.90
2023-02-11T11:16:29.686Z,10.10
2023-02-11T11:19:16.471Z,10.30
2023-02-11T11:21:45.919Z,10.50
2023-02-11T11:24:20.545Z,11.40
2023-02-11T11:26:51.286Z,11.40
2023-02-11T11:29:21.314Z,11.90
2023-02-11T11:31:52.913Z,11.50
2023-02-11T11:34:28.066Z,11.20
2023-02-11T11:36:57.124Z,11.20
2023-02-11T11:39:28.285Z,11.80
2023-02-11T11:41:58.452Z,11.80
2023-02-11T11:44:30.031Z,12.20
2023-02-11T11:47:30.446Z,12.40
2023-02-11T11:50:15.341Z,12.30
2023-02-11T11:52:48.872Z,13.40
2023-02-11T11:55:21.520Z,13.90
2023-02-11T11:57:49.954Z,14.10
2023-02-11T12:00:20.881Z,13.90
2023-02-11T12:03:10.845Z,13.90
2023-02-11T12:05:47.876Z,14.20
2023-02-11T12:08:25.033Z,14.10
2023-02-11T12:11:03.685Z,14.40
2023-02-11T12:13:43.291Z,14.00
2023-02-11T12:16:21.311Z,13.60
2023-02-11T12:19:15.385Z,14.20
2023-02-11T12:21:57.119Z,15.00
2023-02-11T12:24:41.770Z,14.80
2023-02-11T12:27:16.769Z,15.30
2023-02-11T12:29:56.351Z,15.40
2023-02-11T12:32:33.983Z,16.10
2023-02-11T12:35:28.257Z,15.40
2023-02-11T12:38:23.160Z,15.80
2023-02-11T12:40:59.942Z,16.60
2023-02-11T12:43:35.842Z,16.30
2023-02-11T12:46:25.705Z,16.80
2023-02-11T12:49:25.570Z,16.00
2023-02-11T12:52:05.974Z,14.80
2023-02-11T12:54:41.173Z,14.30
2023-02-11T12:57:16.871Z,13.70
2023-02-11T12:59:55.464Z,13.20
2023-02-11T13:02:34.080Z,12.80
2023-02-11T13:05:13.304Z,12.60
2023-02-11T13:07:46.116Z,12.10
2023-02-11T13:10:27.014Z,12.00
2023-02-11T13:13:13.602Z,11.60
2023-02-11T13:15:43.691Z,11.30
2023-02-11T13:18:25.399Z,11.20
2023-02-11T13:21:00.589Z,10.90
2023-02-11T13:23:40.186Z,10.80
2023-02-11T13:26:13.990Z,10.90
2023-02-11T13:28:47.708Z,11.00
2023-02-11T13:31:16.722Z,11.10
2023-02-11T13:33:45.719Z,11.00
2023-02-11T13:36:25.319Z,11.10
2023-02-11T13:39:06.334Z,11.40
2023-02-11T13:41:40.293Z,11.30
2023-02-11T13:44:23.130Z,11.10
2023-02-11T13:46:55.558Z,11.30
2023-02-11T13:49:26.641Z,10.80
2023-02-11T13:51:56.155Z,11.10
2023-02-11T13:54:30.888Z,11.00
2023-02-11T13:57:22.433Z,10.80
2023-02-11T13:59:52.184Z,10.90
2023-02-11T14:02:44.268Z,11.00
2023-02-11T14:05:46.447Z,10.60
2023-02-11T14:08:37.567Z,10.50
2023-02-11T14:11:23.693Z,10.40
2023-02-11T14:14:16.502Z,10.20
2023-02-11T14:17:23.480Z,10.50
2023-02-11T14:19:51.750Z,10.30
2023-02-11T14:22:25.840Z,10.40
2023-02-11T14:24:56.864Z,10.30
2023-02-11T14:27:43.724Z,10.20
2023-02-11T14:30:36.881Z,10.10
2023-02-11T14:33:19.285Z,10.20
2023-02-11T14:36:00.006Z,9.80
2023-02-11T14:38:36.068Z,10.10
2023-02-11T14:41:06.776Z,9.80
2023-02-11T14:43:39.859Z,10.10
2023-02-11T14:46:08.290Z,9.40
2023-02-11T14:48:38.504Z,9.80
2023-02-11T14:51:10.346Z,9.40
2023-02-11T14:53:41.774Z,9.20
2023-02-11T14:56:20.149Z,9.50
2023-02-11T14:58:51.623Z,9.20
2023-02-11T15:01:32.102Z,9.40
2023-02-11T15:04:01.108Z,9.60
2023-02-11T15:06:31.769Z,9.30
2023-02-11T15:09:02.203Z,8.70
2023-02-11T15:11:33.013Z,9.30
2023-02-11T15:14:09.762Z,9.30
2023-02-11T15:16:43.736Z,9.20
2023-02-11T15:19:21.332Z,8.90
2023-02-11T15:21:50.640Z,9.10
2023-02-11T15:24:27.602Z,9.00
2023-02-11T15:27:00.296Z,9.20
2023-02-11T15:29:35.793Z,9.10
2023-02-11T15:32:12.532Z,9.20
2023-02-11T15:34:40.496Z,9.30
2023-02-11T15:37:08.634Z,8.70
2023-02-11T15:39:40.972Z,8.90
2023-02-11T15:42:23.416Z,8.90
2023-02-11T15:45:12.334Z,8.80
2023-02-11T15:47:41.839Z,9.00
2023-02-11T15:50:22.122Z,9.10
2023-02-11T15:52:50.753Z,8.80
2023-02-11T15:55:19.825Z,8.80
2023-02-11T15:57:54.103Z,8.90
2023-02-11T16:00:26.404Z,8.60
2023-02-11T16:02:54.723Z,8.80
2023-02-11T16:05:31.367Z,8.70
2023-02-11T16:07:59.968Z,8.40
2023-02-11T16:10:31.178Z,8.40
2023-02-11T16:13:19.481Z,8.60
2023-02-11T16:15:52.226Z,8.50
2023-02-11T16:18:37.931Z,8.30
2023-02-11T16:21:08.543Z,8.60
2023-02-11T16:23:38.642Z,8.60
2023-02-11T16:26:10.854Z,8.50
2023-02-11T16:28:39.113Z,8.30
2023-02-11T16:31:09.572Z,8.50
2023-02-11T16:33:37.410Z,8.30
2023-02-11T16:36:13.047Z,8.30
2023-02-11T16:38:41.180Z,8.60
2023-02-11T16:41:11.702Z,8.30
2023-02-11T16:43:39.847Z,8.30
2023-02-11T16:46:09.691Z,8.40
2023-02-11T16:48:38.879Z,8.50
2023-02-11T16:51:09.102Z,8.50
2023-02-11T16:53:36.872Z,8.20
2023-02-11T16:56:04.912Z,8.50
2023-02-11T16:58:32.665Z,8.30
2023-02-11T17:01:00.630Z,8.10
2023-02-11T17:03:30.240Z,8.40
2023-02-11T17:05:58.504Z,8.20
2023-02-11T17:08:26.257Z,8.20
2023-02-11T17:10:54.366Z,8.10
2023-02-11T17:13:22.417Z,8.20
2023-02-11T17:15:50.947Z,8.30
2023-02-11T17:18:19.046Z,8.50
2023-02-11T17:20:48.192Z,8.40
2023-02-11T17:23:16.251Z,8.50
2023-02-11T17:25:43.982Z,8.20
2023-02-11T17:28:12.164Z,8.20
2023-02-11T17:30:42.050Z,8.30
2023-02-11T17:33:09.848Z,8.20
2023-02-11T17:35:40.851Z,8.50
2023-02-11T17:38:10.003Z,8.10
2023-02-11T17:40:37.852Z,8.50
2023-02-11T17:43:05.832Z,8.10
2023-02-11T17:45:33.539Z,8.30
2023-02-11T17:48:01.411Z,8.20
2023-02-11T17:50:29.600Z,8.10
2023-02-11T17:52:57.896Z,8.20
2023-02-11T17:55:27.148Z,8.00
2023-02-11T17:57:55.444Z,8.20
2023-02-11T18:00:23.692Z,8.00
2023-02-11T18:02:51.418Z,8.00
2023-02-11T18:05:19.299Z,7.90
2023-02-11T18:07:47.891Z,7.80
2023-02-11T18:10:15.849Z,7.80
2023-02-11T18:12:45.056Z,7.80
2023-02-11T18:15:13.433Z,7.90
2023-02-11T18:17:41.143Z,7.80
2023-02-11T18:20:10.001Z,7.80
2023-02-11T18:22:40.038Z,7.90
2023-02-11T18:25:09.223Z,7.50
2023-02-11T18:27:37.190Z,7.90
2023-02-11T18:30:08.106Z,8.10
2023-02-11T18:32:36.264Z,8.00
2023-02-11T18:35:04.230Z,7.90
2023-02-11T18:37:31.913Z,8.00
2023-02-11T18:39:59.793Z,7.70
2023-02-11T18:42:27.982Z,7.80
2023-02-11T18:44:55.788Z,8.00
2023-02-11T18:47:24.960Z,7.90
2023-02-11T18:49:52.745Z,7.80
2023-02-11T18:52:20.477Z,8.00
2023-02-11T18:54:51.310Z,7.80
2023-02-11T18:57:19.002Z,7.80
2023-02-11T18:59:46.967Z,8.10
2023-02-11T19:02:14.870Z,7.70
2023-02-11T19:04:44.557Z,7.90
2023-02-11T19:07:12.447Z,7.80
2023-02-11T19:09:40.229Z,8.10
2023-02-11T19:12:08.596Z,7.90
2023-02-11T19:14:36.886Z,7.70
2023-02-11T19:17:08.017Z,7.90
2023-02-11T19:19:36.922Z,7.90
2023-02-11T19:22:10.302Z,7.70
2023-02-11T19:24:38.854Z,7.70
2023-02-11T19:27:06.698Z,7.90
2023-02-11T19:29:35.133Z,7.80
2023-02-11T19:32:03.623Z,7.30
2023-02-11T19:34:31.505Z,7.70
2023-02-11T19:37:00.719Z,7.80
2023-02-11T19:39:29.860Z,7.70
2023-02-11T19:41:57.695Z,8.10
2023-02-11T19:44:25.628Z,7.80
2023-02-11T19:46:54.615Z,7.80
2023-02-11T19:49:25.779Z,7.90
2023-02-11T19:51:55.287Z,8.00
2023-02-11T19:54:23.326Z,7.90
2023-02-11T19:56:52.484Z,7.80
2023-02-11T19:59:20.994Z,7.90
2023-02-11T20:01:49.149Z,7.90
2023-02-11T20:04:17.850Z,7.80
2023-02-11T20:06:48.006Z,7.80
2023-02-11T20:09:16.351Z,8.00
2023-02-11T20:11:44.304Z,7.80
2023-02-11T20:14:15.598Z,7.70
2023-02-11T20:16:49.149Z,7.90
2023-02-11T20:19:18.779Z,7.90
2023-02-11T20:21:48.146Z,7.90
2023-02-11T20:24:16.302Z,7.70
2023-02-11T20:26:45.113Z,7.90
2023-02-11T20:29:15.215Z,7.90
2023-02-11T20:31:43.741Z,8.00
2023-02-11T20:34:12.054Z,7.90
2023-02-11T20:36:40.514Z,8.00
2023-02-11T20:39:08.919Z,7.70
2023-02-11T20:41:39.587Z,7.60
2023-02-11T20:44:09.061Z,7.80
2023-02-11T20:46:39.860Z,7.80
2023-02-11T20:49:08.661Z,7.40
2023-02-11T20:51:37.219Z,7.60
2023-02-11T20:54:06.083Z,7.50
2023-02-11T20:56:36.605Z,7.40
2023-02-11T20:59:05.665Z,7.40
2023-02-11T21:01:35.680Z,7.50
2023-02-11T21:04:06.978Z,7.50
2023-02-11T21:06:36.883Z,7.30
2023-02-11T21:09:05.848Z,7.40
2023-02-11T21:11:33.711Z,7.40
2023-02-11T21:14:01.807Z,7.40
2023-02-11T21:16:29.994Z,7.30
2023-02-11T21:18:57.854Z,6.70
2023-02-11T21:21:27.656Z,7.50
2023-02-11T21:23:56.100Z,7.30
2023-02-11T21:26:24.263Z,7.20
2023-02-11T21:28:52.901Z,7.50
2023-02-11T21:31:23.128Z,7.30
2023-02-11T21:33:51.859Z,6.80
2023-02-11T21:36:20.266Z,7.40
2023-02-11T21:38:49.816Z,7.30
2023-02-11T21:41:18.347Z,7.60
2023-02-11T21:43:46.131Z,7.20
2023-02-11T21:46:15.816Z,7.50
2023-02-11T21:48:43.703Z,7.30
2023-02-11T21:51:16.290Z,7.60
2023-02-11T21:53:44.156Z,7.40
2023-02-11T21:56:16.276Z,7.60
2023-02-11T21:58:44.383Z,7.50
2023-02-11T22:01:14.322Z,7.50
2023-02-11T22:03:43.174Z,7.30
2023-02-11T22:06:12.193Z,7.50
2023-02-11T22:08:40.323Z,7.40
2023-02-11T22:11:10.245Z,7.40
2023-02-11T22:13:39.874Z,7.20
2023-02-11T22:16:10.540Z,7.30
2023-02-11T22:18:38.685Z,7.30
2023-02-11T22:21:08.729Z,7.30
2023-02-11T22:23:37.746Z,7.30
2023-02-11T22:26:07.568Z,7.60
2023-02-11T22:28:38.721Z,7.40
2023-02-11T22:31:09.329Z,7.30
2023-02-11T22:33:37.122Z,7.50
2023-02-11T22:36:07.630Z,7.60
2023-02-11T22:38:35.957Z,7.40
2023-02-11T22:41:08.058Z,7.70
2023-02-11T22:43:35.930Z,7.50
2023-02-11T22:46:05.663Z,7.40
2023-02-11T22:48:35.973Z,7.50
2023-02-11T22:51:07.526Z,7.70
2023-02-11T22:53:35.440Z,7.60
2023-02-11T22:56:05.128Z,7.40
2023-02-11T22:58:33.075Z,7.60
2023-02-11T23:01:00.834Z,7.50
2023-02-11T23:03:29.103Z,7.60
2023-02-11T23:05:59.684Z,7.50
2023-02-11T23:08:29.115Z,7.40
2023-02-11T23:10:57.332Z,7.60
2023-02-11T23:13:25.086Z,7.60
2023-02-11T23:15:53.125Z,7.50
2023-02-11T23:18:20.985Z,7.50
2023-02-11T23:20:48.856Z,7.60
2023-02-11T23:23:18.067Z,7.10
2023-02-11T23:25:48.142Z,7.30
2023-02-11T23:28:15.868Z,7.30
2023-02-11T23:30:44.021Z,7.30
2023-02-11T23:33:11.785Z,7.40
2023-02-11T23:35:39.445Z,7.30
2023-02-11T23:38:07.184Z,7.30
2023-02-11T23:40:36.358Z,7.40
2023-02-11T23:43:04.326Z,7.30
2023-02-11T23:45:32.265Z,7.50
2023-02-11T23:48:00.164Z,7.30
2023-02-11T23:50:27.898Z,6.90
2023-02-11T23:52:55.577Z,7.30
2023-02-11T23:55:23.271Z,7.50
2023-02-11T23:57:52.349Z,7.20
